Data for 10/13/2005

Time Sea-Level Adjusted Pressure Absolute Pressure Temperature Relative Humidity Dew Point   
(mb) (inHg) (mb) (inHg) (C) (F) (%) (C) (F)
00:05 1020 30.12 850 25.1 6.4 43.5 56 -1.7 29
00:10 1020 30.12 849 25.07 6 42.8 57 -1.8 28.8
00:15 1020 30.12 849 25.07 6.1 43 58 -1.4 29.4
00:20 1020 30.12 849 25.07 6.1 43.1 58 -1.5 29.3
00:25 1020 30.12 849 25.07 6.2 43.1 58 -1.4 29.5
00:30 1020 30.12 849 25.07 6 42.7 59 -1.5 29.3
00:35 1020 30.12 849 25.07 5.9 42.5 60 -1.4 29.5
00:40 1020 30.12 849 25.07 6 42.9 58 -1.6 29.1
00:45 1020 30.12 849 25.07 6.1 43 58 -1.6 29.2
00:50 1020 30.12 849 25.07 5.9 42.7 58 -1.6 29.1
00:55 1020 30.12 849 25.07 5.6 42.1 60 -1.5 29.2
01:00 1020 30.12 849 25.07 5.6 42.1 59 -1.7 28.9
01:05 1020 30.12 849 25.07 5.9 42.6 58 -1.7 29
01:10 1020 30.12 849 25.07 6.3 43.3 57 -1.7 29
01:15 1020 30.12 849 25.07 6.6 43.8 56 -1.7 28.9
01:20 1020 30.12 849 25.07 6.3 43.4 56 -1.7 28.9
01:25 1020 30.12 849 25.07 6.2 43.1 57 -1.8 28.8
01:30 1020 30.12 849 25.07 6.5 43.7 54 -2.1 28.2
01:35 1020 30.12 849 25.07 6.8 44.2 54 -1.9 28.5
01:40 1020 30.12 849 25.07 6.8 44.2 54 -1.9 28.5
01:45 1020 30.12 849 25.07 6.8 44.2 54 -1.9 28.6
01:50 1020 30.12 849 25.07 6.8 44.2 54 -1.8 28.8
01:55 1020 30.12 849 25.07 6.7 44.1 54 -1.8 28.7
02:00 1020 30.12 849 25.07 6.4 43.5 55 -2 28.5
02:05 1020 30.12 849 25.07 6.2 43.2 56 -2 28.4
02:10 1020 30.12 849 25.07 6.1 42.9 55 -2.3 27.9
02:15 1020 30.12 849 25.07 6 42.8 56 -2 28.4
02:20 1020 30.12 849 25.07 5.8 42.5 57 -2 28.4
02:25 1020 30.12 849 25.07 5.8 42.5 54 -2.8 27
02:30 1020 30.12 849 25.07 6.1 43 55 -2.1 28.2
02:35 1020 30.12 849 25.07 6.5 43.6 53 -2.4 27.7
02:40 1020 30.12 849 25.07 6.8 44.2 51 -2.7 27.1
02:45 1020 30.12 849 25.07 6.9 44.5 54 -1.8 28.7
02:50 1020 30.12 849 25.07 5.6 42.1 61 -1.3 29.6
02:55 1020 30.12 849 25.07 4.8 40.7 62 -1.7 28.9
03:00 1020 30.12 849 25.07 4.4 40 64 -1.8 28.8
03:05 1020 30.12 849 25.07 4.5 40.1 64 -1.7 29
03:10 1020 30.12 849 25.07 4.8 40.7 63 -1.6 29.2
03:15 1020 30.12 849 25.07 5.2 41.4 62 -1.5 29.3
03:20 1020 30.12 849 25.07 5.7 42.2 59 -1.6 29.1
03:25 1020 30.12 849 25.07 6 42.8 59 -1.5 29.3
03:30 1019 30.09 849 25.07 6.2 43.2 58 -1.3 29.6
03:35 1019 30.09 849 25.07 6.4 43.5 57 -1.5 29.3
03:40 1019 30.09 849 25.07 6.6 43.8 57 -1.3 29.6
03:45 1019 30.09 849 25.07 6.6 43.9 57 -1.3 29.7
03:50 1020 30.12 849 25.07 6.7 44 57 -1.3 29.6
03:55 1019 30.09 849 25.07 6.8 44.3 58 -0.9 30.3
04:00 1019 30.09 849 25.07 6.9 44.4 56 -1.3 29.7
04:05 1019 30.09 849 25.07 6.9 44.5 58 -0.7 30.7
04:10 1019 30.09 848 25.04 6.1 42.9 61 -0.9 30.4
04:15 1019 30.09 848 25.04 6.2 43.1 60 -0.9 30.3
04:20 1019 30.09 848 25.04 6.1 43 60 -1 30.2
04:25 1019 30.09 849 25.07 6.3 43.4 60 -0.8 30.5
04:30 1019 30.09 849 25.07 6.5 43.7 59 -1 30.2
04:35 1019 30.09 849 25.07 6.6 43.9 58 -1 30.2
04:40 1020 30.12 849 25.07 6.8 44.3 58 -1 30.2
04:45 1020 30.12 849 25.07 6.9 44.4 56 -1.2 29.8
04:50 1020 30.12 849 25.07 7.2 45 55 -1.1 30
04:55 1020 30.12 849 25.07 7.5 45.4 51 -2.1 28.3
05:00 1020 30.12 849 25.07 7 44.6 56 -1.1 29.9
05:05 1020 30.12 849 25.07 6.2 43.1 60 -1.1 30
05:10 1020 30.12 849 25.07 5.6 42.1 61 -1.3 29.6
05:15 1020 30.12 849 25.07 5.3 41.5 63 -1.2 29.8
05:20 1020 30.12 849 25.07 5.2 41.3 62 -1.4 29.4
05:25 1020 30.12 849 25.07 5.6 42 59 -1.7 28.9
05:30 1020 30.12 849 25.07 6.1 43 59 -1.2 29.8
05:35 1020 30.12 849 25.07 6.1 43 60 -1.2 29.9
05:40 1020 30.12 849 25.07 6 42.8 61 -1 30.2
05:45 1020 30.12 849 25.07 5.5 42 63 -0.9 30.3
05:50 1020 30.12 849 25.07 5.8 42.4 58 -2 28.5
05:55 1020 30.12 849 25.07 6.3 43.3 57 -1.6 29.1
06:00 1020 30.12 849 25.07 6.3 43.3 58 -1.4 29.6
06:05 1019 30.09 849 25.07 5.7 42.3 64 -0.4 31.2
06:10 1019 30.09 848 25.04 5.1 41.1 67 -0.5 31
06:15 1019 30.09 849 25.07 4.9 40.9 66 -0.8 30.6
06:20 1019 30.09 849 25.07 5 41 64 -1.2 29.9
06:25 1019 30.09 849 25.07 5.5 41.9 63 -1 30.2
06:30 1019 30.09 849 25.07 6 42.7 62 -0.7 30.8
06:35 1019 30.09 848 25.04 5.8 42.4 63 -0.7 30.8
06:40 1019 30.09 848 25.04 5.7 42.3 64 -0.6 31
06:45 1019 30.09 848 25.04 5.8 42.4 63 -0.8 30.6
06:50 1019 30.09 848 25.04 6.3 43.3 58 -1.4 29.5
06:55 1019 30.09 848 25.04 7.1 44.7 55 -1.3 29.6
07:00 1019 30.09 848 25.04 7.6 45.7 50 -2.1 28.1
07:05 1019 30.09 848 25.04 8.1 46.5 51 -1.3 29.6
07:10 1019 30.09 848 25.04 7.6 45.7 53 -1.3 29.6
07:15 1019 30.09 849 25.07 7.8 46.1 50 -1.9 28.6
07:20 1019 30.09 848 25.04 8 46.4 52 -1.1 29.9
07:25 1019 30.09 848 25.04 7.7 45.8 54 -1 30.2
07:30 1019 30.09 848 25.04 7.5 45.4 53 -1.5 29.3
07:35 1019 30.09 848 25.04 7.9 46.2 52 -1.3 29.6
07:40 1019 30.09 848 25.04 8 46.5 52 -1.2 29.9
07:45 1019 30.09 848 25.04 7.9 46.2 53 -1.1 30
07:50 1019 30.09 848 25.04 8.1 46.5 53 -0.9 30.3
07:55 1019 30.09 849 25.07 8 46.4 52 -1.3 29.7
08:00 1019 30.09 849 25.07 8 46.4 55 -0.5 31.1
08:05 1019 30.09 849 25.07 7.8 46 56 -0.5 31
08:10 1019 30.09 849 25.07 7.7 45.8 55 -0.8 30.6
08:15 1019 30.09 849 25.07 7.8 46 58 0.1 32.2
08:20 1019 30.09 848 25.04 7.5 45.5 57 -0.4 31.2
08:25 1019 30.09 849 25.07 7.4 45.3 59 -0 32
08:30 1019 30.09 849 25.07 7.4 45.3 59 -0.1 31.8
08:35 1019 30.09 849 25.07 7.4 45.4 58 -0.2 31.6
08:40 1019 30.09 849 25.07 7.8 46 58 0.1 32.1
08:45 1019 30.09 849 25.07 8 46.4 59 0.4 32.8
08:50 1019 30.09 849 25.07 8.2 46.8 61 1.1 34.1
08:55 1019 30.09 849 25.07 8.1 46.6 59 0.7 33.3
09:00 1019 30.09 849 25.07 8.3 46.9 58 0.5 32.9
09:05 1020 30.12 849 25.07 8.6 47.4 57 0.5 32.8
09:10 1020 30.12 849 25.07 8.8 47.9 58 1 33.8
09:15 1020 30.12 849 25.07 8.9 48.1 56 0.5 33
09:20 1020 30.12 849 25.07 9.5 49 57 1.3 34.3
09:25 1020 30.12 849 25.07 9.7 49.5 55 1.2 34.2
09:30 1020 30.12 849 25.07 10 50 53 0.9 33.5
09:35 1020 30.12 849 25.07 10.5 50.9 53 1.5 34.7
09:40 1020 30.12 849 25.07 11.2 52.1 48 0.7 33.2
09:45 1020 30.12 849 25.07 11.5 52.8 51 1.7 35.1
09:50 1020 30.12 849 25.07 11.9 53.4 47 0.9 33.6
09:55 1020 30.12 849 25.07 12.1 53.8 46 1 33.7
10:00 1020 30.12 849 25.07 12.2 54 44 0.2 32.4
10:05 1020 30.12 849 25.07 12.5 54.4 43 0.3 32.5
10:10 1020 30.12 849 25.07 12.9 55.1 42 0.2 32.4
10:15 1020 30.12 849 25.07 13.8 56.9 38 -0 31.9
10:20 1020 30.12 849 25.07 14.3 57.8 36 -0.3 31.5
10:25 1020 30.12 849 25.07 14.2 57.5 38 0.2 32.4
10:30 1020 30.12 849 25.07 14.6 58.2 36 -0.1 31.8
10:35 1020 30.12 849 25.07 14.9 58.8 37 0.5 33
10:40 1020 30.12 849 25.07 15.1 59.2 36 0.1 32.3
10:45 1020 30.12 849 25.07 15.1 59.2 35 -0.3 31.5
10:50 1020 30.12 849 25.07 15.1 59.2 35 -0.1 31.9
10:55 1020 30.12 849 25.07 15.1 59.2 35 -0 32
11:00 1019 30.09 849 25.07 15.6 60.1 35 0.3 32.5
11:05 1019 30.09 849 25.07 15.8 60.4 37 1.1 34
11:10 1019 30.09 849 25.07 16.3 61.3 34 0.4 32.8
11:15 1019 30.09 849 25.07 16.8 62.2 33 0.5 32.9
11:20 1019 30.09 848 25.04 16.6 62 34 0.7 33.3
11:25 1019 30.09 848 25.04 16.5 61.7 35 1 33.9
11:30 1019 30.09 848 25.04 16.2 61.2 35 0.9 33.6
11:35 1019 30.09 848 25.04 16.8 62.2 33 0.3 32.6
11:40 1019 30.09 848 25.04 17.5 63.5 30 -0 31.9
11:45 1019 30.09 848 25.04 16.8 62.2 32 0.3 32.5
11:50 1019 30.09 848 25.04 17.5 63.4 30 -0.1 31.8
11:55 1019 30.09 848 25.04 18.4 65 29 0.1 32.1
12:00 1019 30.09 848 25.04 18.7 65.7 28 -0.1 31.7
12:05 1019 30.09 848 25.04 17.5 63.4 29 -0.6 30.9
12:10 1019 30.09 848 25.04 17.9 64.3 27 -1.5 29.4
12:15 1019 30.09 848 25.04 18.6 65.5 26 -1 30.2
12:20 1019 30.09 848 25.04 19 66.2 27 -0.3 31.4
12:25 1018 30.06 848 25.04 19.5 67.1 26 -0.3 31.5
12:30 1018 30.06 848 25.04 19.1 66.4 26 -0.5 31
12:35 1018 30.06 847 25.01 18.5 65.2 26 -1.1 30.1
12:40 1018 30.06 847 25.01 19 66.3 28 0.2 32.4
12:45 1018 30.06 847 25.01 19.4 67 25 -0.9 30.4
12:50 1018 30.06 847 25.01 19.7 67.4 26 -0.4 31.3
12:55 1018 30.06 847 25.01 19.4 67 25 -0.7 30.7
13:00 1018 30.06 847 25.01 19.5 67.1 25 -1 30.2
13:05 1018 30.06 847 25.01 19.6 67.2 26 -0.5 31.1
13:10 1018 30.06 847 25.01 19.6 67.2 26 -0.2 31.6
13:15 1018 30.06 847 25.01 19.8 67.6 27 0.4 32.7
13:20 1018 30.06 847 25.01 20 68 26 -0.1 31.8
13:25 1018 30.06 847 25.01 20 68.1 26 -0.1 31.8
13:30 1018 30.06 847 25.01 19.8 67.6 26 -0.3 31.5
13:35 1018 30.06 847 25.01 19.7 67.5 26 -0 32
13:40 1018 30.06 847 25.01 19.9 67.7 26 0.1 32.1
13:45 1018 30.06 847 25.01 19.7 67.5 27 0.1 32.2
13:50 1018 30.06 847 25.01 19.4 66.9 26 -0.4 31.3
13:55 1018 30.06 847 25.01 19.3 66.7 27 -0.2 31.6
14:00 1018 30.06 847 25.01 19.6 67.2 27 0.1 32.2
14:05 1018 30.06 847 25.01 19.7 67.4 26 -0.2 31.6
14:10 1018 30.06 847 25.01 19.8 67.6 27 0.6 33
14:15 1018 30.06 847 25.01 19.5 67 27 0.2 32.3
14:20 1018 30.06 847 25.01 19.6 67.3 27 0.2 32.3
14:25 1018 30.06 847 25.01 19.7 67.5 28 0.9 33.6
14:30 1018 30.06 847 25.01 19.9 67.7 28 1 33.8
14:35 1018 30.06 847 25.01 19.3 66.7 29 0.9 33.7
14:40 1018 30.06 847 25.01 19 66.3 30 1.1 33.9
14:45 1018 30.06 847 25.01 18.9 66.1 29 0.7 33.3
14:50 1018 30.06 847 25.01 18.9 66 29 0.4 32.8
14:55 1018 30.06 847 25.01 18.9 66 31 1.4 34.5
15:00 1017 30.03 847 25.01 18.8 65.8 29 0.6 33
15:05 1017 30.03 847 25.01 18.8 65.8 29 0.7 33.2
15:10 1017 30.03 847 25.01 18.6 65.6 29 0.6 33
15:15 1017 30.03 847 25.01 18.6 65.4 30 0.9 33.6
15:20 1017 30.03 847 25.01 18.5 65.4 29 0.3 32.5
15:25 1017 30.03 847 25.01 18.5 65.4 30 0.6 33.1
15:30 1017 30.03 847 25.01 18.6 65.4 29 0.3 32.5
15:35 1017 30.03 847 25.01 18.6 65.5 28 0.1 32.2
15:40 1017 30.03 847 25.01 18.8 65.9 29 0.4 32.7
15:45 1017 30.03 847 25.01 18.7 65.7 29 0.7 33.2
15:50 1017 30.03 847 25.01 18.7 65.6 29 0.3 32.5
15:55 1018 30.06 847 25.01 18.7 65.7 29 0.5 32.8
16:00 1018 30.06 847 25.01 18.7 65.6 30 0.7 33.3
16:05 1018 30.06 847 25.01 18.7 65.6 30 0.8 33.4
16:10 1018 30.06 847 25.01 18.6 65.5 29 0.4 32.7
16:15 1018 30.06 847 25.01 18.5 65.2 30 0.7 33.3
16:20 1018 30.06 847 25.01 18.5 65.3 30 0.8 33.4
16:25 1018 30.06 847 25.01 18.4 65.2 30 0.8 33.4
16:30 1018 30.06 847 25.01 18.4 65.2 30 0.8 33.5
16:35 1018 30.06 847 25.01 18.3 65 31 0.9 33.6
16:40 1018 30.06 847 25.01 18.2 64.8 31 0.8 33.4
16:45 1018 30.06 847 25.01 18.2 64.8 31 0.9 33.7
16:50 1018 30.06 847 25.01 18.1 64.5 31 0.9 33.6
16:55 1018 30.06 847 25.01 18.1 64.5 32 1 33.9
17:00 1018 30.06 847 25.01 18 64.4 31 1 33.7
17:05 1018 30.06 847 25.01 18 64.4 32 1.2 34.1
17:10 1018 30.06 847 25.01 18 64.5 32 1.1 34.1
17:15 1018 30.06 847 25.01 17.9 64.3 32 1 33.8
17:20 1018 30.06 847 25.01 17.9 64.3 32 1.1 33.9
17:25 1018 30.06 847 25.01 18 64.3 32 1.1 34
17:30 1018 30.06 847 25.01 17.9 64.2 32 1.2 34.1
17:35 1018 30.06 848 25.04 17.8 64.1 32 1.3 34.3
17:40 1018 30.06 847 25.01 17.8 64.1 33 1.3 34.4
17:45 1018 30.06 848 25.04 17.7 63.9 32 1.2 34.1
17:50 1018 30.06 848 25.04 17.8 64 33 1.5 34.6
17:55 1018 30.06 847 25.01 17.7 63.8 34 1.8 35.2
18:00 1018 30.06 847 25.01 17.5 63.5 34 1.6 34.8
18:05 1018 30.06 847 25.01 17.4 63.3 34 1.5 34.8
18:10 1018 30.06 847 25.01 17.5 63.4 34 1.7 35
18:15 1018 30.06 847 25.01 17.4 63.3 34 1.7 35
18:20 1018 30.06 847 25.01 17.3 63.2 34 1.6 34.9
18:25 1018 30.06 848 25.04 17.3 63.1 34 1.5 34.7
18:30 1018 30.06 847 25.01 17.2 62.9 34 1.5 34.7
18:35 1018 30.06 847 25.01 17.1 62.9 34 1.3 34.4
18:40 1018 30.06 847 25.01 17.1 62.8 34 1.4 34.6
18:45 1018 30.06 848 25.04 17 62.7 35 1.4 34.6
18:50 1018 30.06 848 25.04 17 62.6 35 1.5 34.7
18:55 1018 30.06 848 25.04 16.9 62.4 35 1.5 34.7
19:00 1018 30.06 848 25.04 16.8 62.2 35 1.3 34.4
19:05 1018 30.06 848 25.04 16.8 62.2 36 1.6 34.8
19:10 1018 30.06 848 25.04 16.8 62.2 36 1.8 35.2
19:15 1018 30.06 848 25.04 16.6 61.9 37 2.1 35.7
19:20 1018 30.06 848 25.04 16.4 61.6 38 2.2 36
19:25 1019 30.09 848 25.04 16.2 61.2 39 2.3 36.1
19:30 1019 30.09 848 25.04 16 60.8 39 2.3 36.1
19:35 1019 30.09 848 25.04 15.9 60.6 41 2.9 37.2
19:40 1019 30.09 848 25.04 15.7 60.2 43 3.1 37.6
19:45 1019 30.09 848 25.04 15.6 60 43 3 37.4
19:50 1019 30.09 848 25.04 15.5 59.9 43 3 37.3
19:55 1019 30.09 848 25.04 15.4 59.8 42 2.8 37.1
20:00 1019 30.09 848 25.04 15.4 59.8 43 3 37.4
20:05 1019 30.09 848 25.04 15.4 59.7 43 3.1 37.6
20:10 1019 30.09 848 25.04 15.3 59.5 44 3.2 37.8
20:15 1019 30.09 848 25.04 14.9 58.8 46 3.6 38.4
20:20 1019 30.09 849 25.07 14.8 58.6 47 3.7 38.7
20:25 1019 30.09 849 25.07 14.7 58.5 46 3.4 38.2
20:30 1019 30.09 849 25.07 14.9 58.8 46 3.4 38.1
20:35 1019 30.09 849 25.07 14.9 58.9 45 3.2 37.8
20:40 1019 30.09 849 25.07 14.9 58.8 45 3.1 37.5
20:45 1020 30.12 849 25.07 15 58.9 44 3 37.4
20:50 1020 30.12 849 25.07 15 59 44 2.9 37.2
20:55 1020 30.12 849 25.07 15 59 44 3 37.5
21:00 1020 30.12 849 25.07 14.9 58.8 44 2.8 37.1
21:05 1020 30.12 849 25.07 14.8 58.6 44 2.9 37.2
21:10 1020 30.12 849 25.07 14.7 58.5 45 3 37.3
21:15 1020 30.12 849 25.07 14.5 58.1 47 3.3 37.9
21:20 1020 30.12 849 25.07 14.3 57.7 48 3.3 38
21:25 1020 30.12 850 25.1 14.1 57.4 48 3.4 38.1
21:30 1020 30.12 850 25.1 13.9 57 49 3.4 38.2
21:35 1020 30.12 850 25.1 13.6 56.5 50 3.4 38.2
21:40 1021 30.15 850 25.1 13.5 56.2 52 3.8 38.8
21:45 1021 30.15 850 25.1 13.3 56 52 3.7 38.7
21:50 1021 30.15 850 25.1 13.2 55.7 52 3.7 38.6
21:55 1021 30.15 850 25.1 13.1 55.6 53 3.8 38.8
22:00 1021 30.15 850 25.1 12.9 55.2 53 3.7 38.6
22:05 1021 30.15 850 25.1 12.9 55.2 53 3.7 38.6
22:10 1021 30.15 850 25.1 12.9 55.2 53 3.7 38.6
22:15 1021 30.15 850 25.1 12.8 55.1 53 3.6 38.4
22:20 1021 30.15 850 25.1 12.8 55 53 3.5 38.4
22:25 1021 30.15 850 25.1 12.8 55 53 3.5 38.4
22:30 1021 30.15 850 25.1 12.6 54.7 57 4.3 39.8
22:35 1021 30.15 850 25.1 11.6 52.9 62 4.5 40.1
22:40 1021 30.15 850 25.1 10.9 51.5 63 4.1 39.4
22:45 1021 30.15 851 25.13 10.8 51.5 61 3.7 38.6
22:50 1021 30.15 851 25.13 11 51.8 60 3.5 38.3
22:55 1021 30.15 851 25.13 11.2 52.2 59 3.6 38.5
23:00 1022 30.18 851 25.13 11.1 52 59 3.5 38.4
23:05 1022 30.18 851 25.13 10.8 51.4 60 3.4 38
23:10 1022 30.18 851 25.13 10.9 51.6 58 3 37.5
23:15 1022 30.18 851 25.13 11 51.7 58 3.2 37.7
23:20 1022 30.18 851 25.13 10.9 51.6 58 3 37.5
23:25 1022 30.18 851 25.13 11 51.7 58 3.1 37.6
23:30 1022 30.18 851 25.13 10.9 51.5 58 3 37.3
23:35 1022 30.18 851 25.13 10.9 51.7 57 2.8 37.1
23:40 1022 30.18 851 25.13 10.7 51.3 59 3 37.4
23:45 1022 30.18 851 25.13 10.3 50.6 59 2.7 36.9
23:50 1022 30.18 851 25.13 10.5 50.9 59 2.9 37.2
23:55 1022 30.18 851 25.13 10.3 50.6 58 2.6 36.7
24:00 1022 30.18 851 25.13 10.5 50.9 58 2.6 36.7